sensor_id;sensor_type;location;lat;lon;timestamp;temperature;humidity
26254;DHT22;53339;51.378;0.094;2022-08-03T00:01:39;19.10;79.80
26254;DHT22;53339;51.378;0.094;2022-08-03T00:04:08;19.00;80.00
26254;DHT22;53339;51.378;0.094;2022-08-03T00:06:36;19.00;80.00
26254;DHT22;53339;51.378;0.094;2022-08-03T00:09:04;19.00;80.00
26254;DHT22;53339;51.378;0.094;2022-08-03T00:11:32;19.00;80.00
26254;DHT22;53339;51.378;0.094;2022-08-03T00:14:00;19.00;80.10
26254;DHT22;53339;51.378;0.094;2022-08-03T00:16:27;19.00;80.60
26254;DHT22;53339;51.378;0.094;2022-08-03T00:18:55;18.90;80.80
26254;DHT22;53339;51.378;0.094;2022-08-03T00:21:22;18.80;80.80
26254;DHT22;53339;51.378;0.094;2022-08-03T00:23:50;18.80;80.70
26254;DHT22;53339;51.378;0.094;2022-08-03T00:26:20;18.80;80.70
26254;DHT22;53339;51.378;0.094;2022-08-03T00:28:49;18.80;80.60
26254;DHT22;53339;51.378;0.094;2022-08-03T00:31:16;18.80;80.60
26254;DHT22;53339;51.378;0.094;2022-08-03T00:33:49;18.80;80.60
26254;DHT22;53339;51.378;0.094;2022-08-03T00:36:25;18.70;80.60
26254;DHT22;53339;51.378;0.094;2022-08-03T00:38:53;18.70;80.50
26254;DHT22;53339;51.378;0.094;2022-08-03T00:41:21;18.70;80.60
26254;DHT22;53339;51.378;0.094;2022-08-03T00:43:48;18.70;80.70
26254;DHT22;53339;51.378;0.094;2022-08-03T00:46:16;18.70;80.60
26254;DHT22;53339;51.378;0.094;2022-08-03T00:48:48;18.70;80.60
26254;DHT22;53339;51.378;0.094;2022-08-03T00:51:17;18.60;80.70
26254;DHT22;53339;51.378;0.094;2022-08-03T00:53:45;18.60;80.70
26254;DHT22;53339;51.378;0.094;2022-08-03T00:56:16;18.60;80.60
26254;DHT22;53339;51.378;0.094;2022-08-03T00:58:45;18.60;80.90
26254;DHT22;53339;51.378;0.094;2022-08-03T01:01:13;18.50;81.30
26254;DHT22;53339;51.378;0.094;2022-08-03T01:03:41;18.50;81.50
26254;DHT22;53339;51.378;0.094;2022-08-03T01:06:24;18.50;81.50
26254;DHT22;53339;51.378;0.094;2022-08-03T01:09:17;18.50;81.60
26254;DHT22;53339;51.378;0.094;2022-08-03T01:11:50;18.50;82.00
26254;DHT22;53339;51.378;0.094;2022-08-03T01:14:51;18.50;82.20
26254;DHT22;53339;51.378;0.094;2022-08-03T01:17:33;18.50;82.20
26254;DHT22;53339;51.378;0.094;2022-08-03T01:20:06;18.50;82.70
26254;DHT22;53339;51.378;0.094;2022-08-03T01:30:52;18.40;83.30
26254;DHT22;53339;51.378;0.094;2022-08-03T01:33:25;18.40;83.40
26254;DHT22;53339;51.378;0.094;2022-08-03T01:36:04;18.30;83.70
26254;DHT22;53339;51.378;0.094;2022-08-03T01:38:53;18.30;83.90
26254;DHT22;53339;51.378;0.094;2022-08-03T01:41:24;18.30;84.10
26254;DHT22;53339;51.378;0.094;2022-08-03T01:43:57;18.20;84.40
26254;DHT22;53339;51.378;0.094;2022-08-03T01:46:49;18.20;84.60
26254;DHT22;53339;51.378;0.094;2022-08-03T01:49:17;18.20;84.80
26254;DHT22;53339;51.378;0.094;2022-08-03T01:51:46;18.20;84.80
26254;DHT22;53339;51.378;0.094;2022-08-03T01:54:24;18.20;84.80
26254;DHT22;53339;51.378;0.094;2022-08-03T01:56:53;18.20;84.80
26254;DHT22;53339;51.378;0.094;2022-08-03T01:59:24;18.10;84.80
26254;DHT22;53339;51.378;0.094;2022-08-03T02:01:53;18.10;84.80
26254;DHT22;53339;51.378;0.094;2022-08-03T02:04:42;18.10;84.90
26254;DHT22;53339;51.378;0.094;2022-08-03T02:07:13;18.10;84.90
26254;DHT22;53339;51.378;0.094;2022-08-03T02:09:43;18.10;85.00
26254;DHT22;53339;51.378;0.094;2022-08-03T02:12:13;18.10;85.00
26254;DHT22;53339;51.378;0.094;2022-08-03T02:14:43;18.10;85.20
26254;DHT22;53339;51.378;0.094;2022-08-03T02:17:12;18.10;85.50
26254;DHT22;53339;51.378;0.094;2022-08-03T02:19:42;18.10;85.80
26254;DHT22;53339;51.378;0.094;2022-08-03T02:22:11;18.10;85.90
26254;DHT22;53339;51.378;0.094;2022-08-03T02:24:39;18.20;86.10
26254;DHT22;53339;51.378;0.094;2022-08-03T02:27:23;18.20;86.20
26254;DHT22;53339;51.378;0.094;2022-08-03T02:30:06;18.20;86.20
26254;DHT22;53339;51.378;0.094;2022-08-03T02:32:37;18.20;86.20
26254;DHT22;53339;51.378;0.094;2022-08-03T02:35:12;18.20;86.10
26254;DHT22;53339;51.378;0.094;2022-08-03T02:37:46;18.30;86.10
26254;DHT22;53339;51.378;0.094;2022-08-03T02:40:17;18.30;85.90
26254;DHT22;53339;51.378;0.094;2022-08-03T02:42:46;18.30;85.90
26254;DHT22;53339;51.378;0.094;2022-08-03T02:45:17;18.40;85.90
26254;DHT22;53339;51.378;0.094;2022-08-03T02:47:47;18.30;85.80
26254;DHT22;53339;51.378;0.094;2022-08-03T02:50:21;18.40;85.70
26254;DHT22;53339;51.378;0.094;2022-08-03T02:52:50;18.40;85.70
26254;DHT22;53339;51.378;0.094;2022-08-03T02:55:20;18.40;85.60
26254;DHT22;53339;51.378;0.094;2022-08-03T02:57:49;18.50;85.50
26254;DHT22;53339;51.378;0.094;2022-08-03T03:00:18;18.50;85.40
26254;DHT22;53339;51.378;0.094;2022-08-03T03:02:59;18.50;85.40
26254;DHT22;53339;51.378;0.094;2022-08-03T03:05:28;18.60;85.30
26254;DHT22;53339;51.378;0.094;2022-08-03T03:08:18;18.60;85.20
26254;DHT22;53339;51.378;0.094;2022-08-03T03:10:47;18.60;85.20
26254;DHT22;53339;51.378;0.094;2022-08-03T03:13:16;18.50;85.10
26254;DHT22;53339;51.378;0.094;2022-08-03T03:15:46;18.60;85.10
26254;DHT22;53339;51.378;0.094;2022-08-03T03:18:16;18.60;85.10
26254;DHT22;53339;51.378;0.094;2022-08-03T03:20:49;18.60;85.10
26254;DHT22;53339;51.378;0.094;2022-08-03T03:23:17;18.60;85.00
26254;DHT22;53339;51.378;0.094;2022-08-03T03:25:46;18.70;84.90
26254;DHT22;53339;51.378;0.094;2022-08-03T03:28:14;18.70;84.70
26254;DHT22;53339;51.378;0.094;2022-08-03T03:30:42;18.70;84.60
26254;DHT22;53339;51.378;0.094;2022-08-03T03:33:11;18.70;84.50
26254;DHT22;53339;51.378;0.094;2022-08-03T03:35:40;18.70;84.40
26254;DHT22;53339;51.378;0.094;2022-08-03T03:38:09;18.70;84.40
26254;DHT22;53339;51.378;0.094;2022-08-03T03:40:37;18.70;84.30
26254;DHT22;53339;51.378;0.094;2022-08-03T03:43:09;18.70;84.30
26254;DHT22;53339;51.378;0.094;2022-08-03T03:45:39;18.80;84.20
26254;DHT22;53339;51.378;0.094;2022-08-03T03:48:07;18.70;84.20
26254;DHT22;53339;51.378;0.094;2022-08-03T03:50:36;18.80;84.10
26254;DHT22;53339;51.378;0.094;2022-08-03T03:53:10;18.70;84.00
26254;DHT22;53339;51.378;0.094;2022-08-03T03:55:39;18.80;84.00
26254;DHT22;53339;51.378;0.094;2022-08-03T03:58:24;18.80;84.00
26254;DHT22;53339;51.378;0.094;2022-08-03T04:00:51;18.70;83.90
26254;DHT22;53339;51.378;0.094;2022-08-03T04:03:20;18.70;83.90
26254;DHT22;53339;51.378;0.094;2022-08-03T04:05:47;18.70;83.90
26254;DHT22;53339;51.378;0.094;2022-08-03T04:08:34;18.70;83.90
26254;DHT22;53339;51.378;0.094;2022-08-03T04:11:40;18.70;83.80
26254;DHT22;53339;51.378;0.094;2022-08-03T04:14:23;18.70;83.80
26254;DHT22;53339;51.378;0.094;2022-08-03T04:17:00;18.60;83.90
26254;DHT22;53339;51.378;0.094;2022-08-03T04:19:48;18.60;84.00
26254;DHT22;53339;51.378;0.094;2022-08-03T04:22:20;18.60;84.20
26254;DHT22;53339;51.378;0.094;2022-08-03T04:24:51;18.60;84.20
26254;DHT22;53339;51.378;0.094;2022-08-03T04:27:27;18.60;84.30
26254;DHT22;53339;51.378;0.094;2022-08-03T04:30:02;18.60;84.30
26254;DHT22;53339;51.378;0.094;2022-08-03T04:32:31;18.60;84.30
26254;DHT22;53339;51.378;0.094;2022-08-03T04:34:59;18.60;84.30
26254;DHT22;53339;51.378;0.094;2022-08-03T04:37:42;18.60;84.20
26254;DHT22;53339;51.378;0.094;2022-08-03T04:40:25;18.70;84.20
26254;DHT22;53339;51.378;0.094;2022-08-03T04:42:57;18.70;84.10
26254;DHT22;53339;51.378;0.094;2022-08-03T04:45:29;18.70;84.00
26254;DHT22;53339;51.378;0.094;2022-08-03T04:47:57;18.70;83.90
26254;DHT22;53339;51.378;0.094;2022-08-03T04:50:25;18.70;83.90
26254;DHT22;53339;51.378;0.094;2022-08-03T04:53:05;18.70;83.90
26254;DHT22;53339;51.378;0.094;2022-08-03T04:55:33;18.70;83.90
26254;DHT22;53339;51.378;0.094;2022-08-03T04:58:03;18.70;83.90
26254;DHT22;53339;51.378;0.094;2022-08-03T05:00:30;18.80;83.90
26254;DHT22;53339;51.378;0.094;2022-08-03T05:02:58;18.80;83.80
26254;DHT22;53339;51.378;0.094;2022-08-03T05:05:26;18.80;83.70
26254;DHT22;53339;51.378;0.094;2022-08-03T05:08:00;18.80;83.70
26254;DHT22;53339;51.378;0.094;2022-08-03T05:10:29;18.90;83.60
26254;DHT22;53339;51.378;0.094;2022-08-03T05:12:57;18.90;83.60
26254;DHT22;53339;51.378;0.094;2022-08-03T05:15:24;18.90;83.50
26254;DHT22;53339;51.378;0.094;2022-08-03T05:17:52;18.90;83.50
26254;DHT22;53339;51.378;0.094;2022-08-03T05:20:20;18.90;83.50
26254;DHT22;53339;51.378;0.094;2022-08-03T05:22:47;19.00;83.40
26254;DHT22;53339;51.378;0.094;2022-08-03T05:25:15;19.00;83.40
26254;DHT22;53339;51.378;0.094;2022-08-03T05:27:43;19.00;83.40
26254;DHT22;53339;51.378;0.094;2022-08-03T05:30:11;19.00;83.30
26254;DHT22;53339;51.378;0.094;2022-08-03T05:32:53;19.00;83.30
26254;DHT22;53339;51.378;0.094;2022-08-03T05:35:20;19.10;83.20
26254;DHT22;53339;51.378;0.094;2022-08-03T05:38:08;19.10;83.20
26254;DHT22;53339;51.378;0.094;2022-08-03T05:40:35;19.10;83.10
26254;DHT22;53339;51.378;0.094;2022-08-03T05:43:04;19.20;83.00
26254;DHT22;53339;51.378;0.094;2022-08-03T05:45:31;19.20;82.90
26254;DHT22;53339;51.378;0.094;2022-08-03T05:47:59;19.20;82.90
26254;DHT22;53339;51.378;0.094;2022-08-03T05:50:27;19.30;82.80
26254;DHT22;53339;51.378;0.094;2022-08-03T05:52:55;19.30;82.70
26254;DHT22;53339;51.378;0.094;2022-08-03T05:55:24;19.40;82.60
26254;DHT22;53339;51.378;0.094;2022-08-03T05:57:51;19.40;82.50
26254;DHT22;53339;51.378;0.094;2022-08-03T06:00:19;19.40;82.40
26254;DHT22;53339;51.378;0.094;2022-08-03T06:02:46;19.50;82.40
26254;DHT22;53339;51.378;0.094;2022-08-03T06:05:14;19.50;82.30
26254;DHT22;53339;51.378;0.094;2022-08-03T06:07:41;19.60;82.20
26254;DHT22;53339;51.378;0.094;2022-08-03T06:10:09;19.60;82.30
26254;DHT22;53339;51.378;0.094;2022-08-03T06:12:57;19.60;82.10
26254;DHT22;53339;51.378;0.094;2022-08-03T06:15:24;19.70;81.70
26254;DHT22;53339;51.378;0.094;2022-08-03T06:17:52;19.70;81.70
26254;DHT22;53339;51.378;0.094;2022-08-03T06:20:20;19.70;81.80
26254;DHT22;53339;51.378;0.094;2022-08-03T06:22:48;19.80;81.70
26254;DHT22;53339;51.378;0.094;2022-08-03T06:25:17;19.80;81.60
26254;DHT22;53339;51.378;0.094;2022-08-03T06:27:47;19.80;81.70
26254;DHT22;53339;51.378;0.094;2022-08-03T06:30:15;19.90;81.50
26254;DHT22;53339;51.378;0.094;2022-08-03T06:32:47;19.90;81.50
26254;DHT22;53339;51.378;0.094;2022-08-03T06:35:18;20.00;81.20
26254;DHT22;53339;51.378;0.094;2022-08-03T06:37:48;20.00;81.10
26254;DHT22;53339;51.378;0.094;2022-08-03T06:40:21;20.00;81.20
26254;DHT22;53339;51.378;0.094;2022-08-03T06:43:01;20.10;81.30
26254;DHT22;53339;51.378;0.094;2022-08-03T06:45:31;20.20;81.20
26254;DHT22;53339;51.378;0.094;2022-08-03T06:48:05;20.10;80.80
26254;DHT22;53339;51.378;0.094;2022-08-03T06:50:35;20.20;80.80
26254;DHT22;53339;51.378;0.094;2022-08-03T06:53:04;20.10;81.00
26254;DHT22;53339;51.378;0.094;2022-08-03T06:55:32;20.20;81.00
26254;DHT22;53339;51.378;0.094;2022-08-03T06:58:01;20.20;81.10
26254;DHT22;53339;51.378;0.094;2022-08-03T07:00:29;20.20;80.70
26254;DHT22;53339;51.378;0.094;2022-08-03T07:02:57;20.20;80.60
26254;DHT22;53339;51.378;0.094;2022-08-03T07:05:25;20.20;80.60
26254;DHT22;53339;51.378;0.094;2022-08-03T07:07:56;20.20;80.60
26254;DHT22;53339;51.378;0.094;2022-08-03T07:10:25;20.20;80.70
26254;DHT22;53339;51.378;0.094;2022-08-03T07:12:54;20.30;80.70
26254;DHT22;53339;51.378;0.094;2022-08-03T07:15:23;20.40;80.60
26254;DHT22;53339;51.378;0.094;2022-08-03T07:18:04;20.40;80.60
26254;DHT22;53339;51.378;0.094;2022-08-03T07:20:33;20.50;80.40
26254;DHT22;53339;51.378;0.094;2022-08-03T07:23:01;20.60;80.10
26254;DHT22;53339;51.378;0.094;2022-08-03T07:25:28;20.60;79.80
26254;DHT22;53339;51.378;0.094;2022-08-03T07:27:56;20.60;79.90
26254;DHT22;53339;51.378;0.094;2022-08-03T07:30:24;20.60;79.90
26254;DHT22;53339;51.378;0.094;2022-08-03T07:32:51;20.70;79.70
26254;DHT22;53339;51.378;0.094;2022-08-03T07:35:19;20.70;79.40
26254;DHT22;53339;51.378;0.094;2022-08-03T07:37:52;20.70;79.40
26254;DHT22;53339;51.378;0.094;2022-08-03T07:40:21;20.70;79.50
26254;DHT22;53339;51.378;0.094;2022-08-03T07:42:49;20.90;79.30
26254;DHT22;53339;51.378;0.094;2022-08-03T07:45:18;20.90;79.20
26254;DHT22;53339;51.378;0.094;2022-08-03T07:47:45;20.90;78.70
26254;DHT22;53339;51.378;0.094;2022-08-03T07:50:20;21.00;79.00
26254;DHT22;53339;51.378;0.094;2022-08-03T07:52:48;21.00;78.80
26254;DHT22;53339;51.378;0.094;2022-08-03T07:55:19;21.00;78.70
26254;DHT22;53339;51.378;0.094;2022-08-03T07:57:52;21.00;78.70
26254;DHT22;53339;51.378;0.094;2022-08-03T08:00:25;21.00;78.60
26254;DHT22;53339;51.378;0.094;2022-08-03T08:02:52;21.00;78.70
26254;DHT22;53339;51.378;0.094;2022-08-03T08:05:20;21.00;78.60
26254;DHT22;53339;51.378;0.094;2022-08-03T08:07:47;21.10;78.80
26254;DHT22;53339;51.378;0.094;2022-08-03T08:10:17;21.20;78.70
26254;DHT22;53339;51.378;0.094;2022-08-03T08:12:44;21.30;78.10
26254;DHT22;53339;51.378;0.094;2022-08-03T08:15:12;21.40;77.70
26254;DHT22;53339;51.378;0.094;2022-08-03T08:17:44;21.40;77.30
26254;DHT22;53339;51.378;0.094;2022-08-03T08:20:17;21.50;77.10
26254;DHT22;53339;51.378;0.094;2022-08-03T08:22:50;21.50;76.80
26254;DHT22;53339;51.378;0.094;2022-08-03T08:25:18;21.50;77.20
26254;DHT22;53339;51.378;0.094;2022-08-03T08:27:47;21.60;77.30
26254;DHT22;53339;51.378;0.094;2022-08-03T08:30:35;21.70;77.00
26254;DHT22;53339;51.378;0.094;2022-08-03T08:33:03;21.70;76.60
26254;DHT22;53339;51.378;0.094;2022-08-03T08:35:30;21.80;76.30
26254;DHT22;53339;51.378;0.094;2022-08-03T08:37:59;21.90;75.80
26254;DHT22;53339;51.378;0.094;2022-08-03T08:40:30;21.90;75.80
26254;DHT22;53339;51.378;0.094;2022-08-03T08:42:58;22.10;76.30
26254;DHT22;53339;51.378;0.094;2022-08-03T08:45:25;22.20;75.40
26254;DHT22;53339;51.378;0.094;2022-08-03T08:47:54;22.30;74.70
26254;DHT22;53339;51.378;0.094;2022-08-03T08:50:29;22.20;74.50
26254;DHT22;53339;51.378;0.094;2022-08-03T08:52:59;22.20;74.50
26254;DHT22;53339;51.378;0.094;2022-08-03T08:55:28;22.10;74.90
26254;DHT22;53339;51.378;0.094;2022-08-03T08:58:18;22.10;75.10
26254;DHT22;53339;51.378;0.094;2022-08-03T09:00:48;22.10;75.10
26254;DHT22;53339;51.378;0.094;2022-08-03T09:03:17;22.20;75.40
26254;DHT22;53339;51.378;0.094;2022-08-03T09:05:49;22.20;75.00
26254;DHT22;53339;51.378;0.094;2022-08-03T09:08:22;22.40;75.10
26254;DHT22;53339;51.378;0.094;2022-08-03T09:10:50;22.60;74.90
26254;DHT22;53339;51.378;0.094;2022-08-03T09:13:18;22.70;73.50
26254;DHT22;53339;51.378;0.094;2022-08-03T09:15:45;22.70;73.50
26254;DHT22;53339;51.378;0.094;2022-08-03T09:18:28;22.70;73.90
26254;DHT22;53339;51.378;0.094;2022-08-03T09:21:33;22.70;73.20
26254;DHT22;53339;51.378;0.094;2022-08-03T09:24:03;22.70;73.30
26254;DHT22;53339;51.378;0.094;2022-08-03T09:26:49;22.80;72.90
26254;DHT22;53339;51.378;0.094;2022-08-03T09:29:19;22.70;72.80
26254;DHT22;53339;51.378;0.094;2022-08-03T09:31:48;22.60;73.40
26254;DHT22;53339;51.378;0.094;2022-08-03T09:34:16;22.60;73.60
26254;DHT22;53339;51.378;0.094;2022-08-03T09:36:49;22.60;73.40
26254;DHT22;53339;51.378;0.094;2022-08-03T09:39:18;22.60;73.00
26254;DHT22;53339;51.378;0.094;2022-08-03T09:42:09;22.50;73.40
26254;DHT22;53339;51.378;0.094;2022-08-03T09:44:45;22.60;74.00
26254;DHT22;53339;51.378;0.094;2022-08-03T09:47:35;22.70;73.10
26254;DHT22;53339;51.378;0.094;2022-08-03T09:50:11;22.70;72.90
26254;DHT22;53339;51.378;0.094;2022-08-03T09:52:40;22.80;73.00
26254;DHT22;53339;51.378;0.094;2022-08-03T09:55:16;22.80;72.60
26254;DHT22;53339;51.378;0.094;2022-08-03T09:57:50;23.00;72.70
26254;DHT22;53339;51.378;0.094;2022-08-03T10:00:18;23.10;71.70
26254;DHT22;53339;51.378;0.094;2022-08-03T10:02:46;23.20;71.60
26254;DHT22;53339;51.378;0.094;2022-08-03T10:05:30;23.20;71.40
26254;DHT22;53339;51.378;0.094;2022-08-03T10:08:09;23.40;70.70
26254;DHT22;53339;51.378;0.094;2022-08-03T10:10:44;23.60;70.80
26254;DHT22;53339;51.378;0.094;2022-08-03T10:13:13;23.70;70.50
26254;DHT22;53339;51.378;0.094;2022-08-03T10:15:41;23.80;69.70
26254;DHT22;53339;51.378;0.094;2022-08-03T10:18:33;23.80;69.90
26254;DHT22;53339;51.378;0.094;2022-08-03T10:21:03;23.90;70.20
26254;DHT22;53339;51.378;0.094;2022-08-03T10:23:40;24.10;68.90
26254;DHT22;53339;51.378;0.094;2022-08-03T10:26:12;24.10;68.60
26254;DHT22;53339;51.378;0.094;2022-08-03T10:28:48;24.00;68.40
26254;DHT22;53339;51.378;0.094;2022-08-03T10:31:19;23.90;68.80
26254;DHT22;53339;51.378;0.094;2022-08-03T10:33:50;23.80;68.50
26254;DHT22;53339;51.378;0.094;2022-08-03T10:36:23;23.70;69.10
26254;DHT22;53339;51.378;0.094;2022-08-03T10:38:53;23.70;69.60
26254;DHT22;53339;51.378;0.094;2022-08-03T10:41:28;23.70;69.50
26254;DHT22;53339;51.378;0.094;2022-08-03T10:44:03;23.70;69.50
26254;DHT22;53339;51.378;0.094;2022-08-03T10:46:32;23.90;70.00
26254;DHT22;53339;51.378;0.094;2022-08-03T10:49:01;24.20;69.10
26254;DHT22;53339;51.378;0.094;2022-08-03T10:51:29;24.40;68.40
26254;DHT22;53339;51.378;0.094;2022-08-03T10:53:59;24.60;68.10
26254;DHT22;53339;51.378;0.094;2022-08-03T11:02:13;24.90;65.80
26254;DHT22;53339;51.378;0.094;2022-08-03T11:04:41;24.90;65.50
26254;DHT22;53339;51.378;0.094;2022-08-03T11:09:53;24.90;66.00
26254;DHT22;53339;51.378;0.094;2022-08-03T11:12:32;24.90;66.40
26254;DHT22;53339;51.378;0.094;2022-08-03T11:15:03;25.10;65.50
26254;DHT22;53339;51.378;0.094;2022-08-03T11:17:32;25.20;65.10
26254;DHT22;53339;51.378;0.094;2022-08-03T11:20:12;25.30;65.40
26254;DHT22;53339;51.378;0.094;2022-08-03T11:22:49;25.60;64.20
26254;DHT22;53339;51.378;0.094;2022-08-03T11:25:17;25.60;63.30
26254;DHT22;53339;51.378;0.094;2022-08-03T11:28:29;25.60;63.30
26254;DHT22;53339;51.378;0.094;2022-08-03T11:34:15;25.70;64.40
26254;DHT22;53339;51.378;0.094;2022-08-03T11:37:18;26.00;63.30
26254;DHT22;53339;51.378;0.094;2022-08-03T11:39:49;26.20;61.40
26254;DHT22;53339;51.378;0.094;2022-08-03T11:47:20;26.10;61.60
26254;DHT22;53339;51.378;0.094;2022-08-03T11:49:49;26.10;62.10
26254;DHT22;53339;51.378;0.094;2022-08-03T11:52:17;26.30;61.50
26254;DHT22;53339;51.378;0.094;2022-08-03T11:54:45;26.40;60.80
26254;DHT22;53339;51.378;0.094;2022-08-03T11:57:33;26.50;60.90
26254;DHT22;53339;51.378;0.094;2022-08-03T12:00:30;26.50;60.30
26254;DHT22;53339;51.378;0.094;2022-08-03T12:03:05;26.30;59.70
26254;DHT22;53339;51.378;0.094;2022-08-03T12:08:05;26.20;60.20
26254;DHT22;53339;51.378;0.094;2022-08-03T12:10:33;26.20;60.80
26254;DHT22;53339;51.378;0.094;2022-08-03T12:13:03;26.30;60.50
26254;DHT22;53339;51.378;0.094;2022-08-03T12:15:56;26.50;59.90
26254;DHT22;53339;51.378;0.094;2022-08-03T12:18:25;26.70;59.50
26254;DHT22;53339;51.378;0.094;2022-08-03T12:21:03;26.80;59.80
26254;DHT22;53339;51.378;0.094;2022-08-03T12:23:31;27.10;59.50
26254;DHT22;53339;51.378;0.094;2022-08-03T12:26:05;27.30;57.80
26254;DHT22;53339;51.378;0.094;2022-08-03T12:28:33;27.40;57.10
26254;DHT22;53339;51.378;0.094;2022-08-03T12:31:07;27.50;57.80
26254;DHT22;53339;51.378;0.094;2022-08-03T12:34:01;27.70;56.60
26254;DHT22;53339;51.378;0.094;2022-08-03T12:36:31;27.90;55.80
26254;DHT22;53339;51.378;0.094;2022-08-03T12:39:02;28.10;55.00
26254;DHT22;53339;51.378;0.094;2022-08-03T12:41:36;28.50;54.20
26254;DHT22;53339;51.378;0.094;2022-08-03T12:44:05;28.70;52.40
26254;DHT22;53339;51.378;0.094;2022-08-03T12:46:39;28.60;52.30
26254;DHT22;53339;51.378;0.094;2022-08-03T12:49:14;28.60;52.70
26254;DHT22;53339;51.378;0.094;2022-08-03T12:54:20;29.60;50.80
26254;DHT22;53339;51.378;0.094;2022-08-03T12:59:39;30.90;47.00
26254;DHT22;53339;51.378;0.094;2022-08-03T13:02:24;31.20;45.00
26254;DHT22;53339;51.378;0.094;2022-08-03T13:04:53;30.90;45.70
26254;DHT22;53339;51.378;0.094;2022-08-03T13:07:21;30.60;45.50
26254;DHT22;53339;51.378;0.094;2022-08-03T13:09:52;30.60;45.10
26254;DHT22;53339;51.378;0.094;2022-08-03T13:12:25;30.70;45.50
26254;DHT22;53339;51.378;0.094;2022-08-03T13:14:58;31.00;45.00
26254;DHT22;53339;51.378;0.094;2022-08-03T13:17:26;31.20;44.30
26254;DHT22;53339;51.378;0.094;2022-08-03T13:19:54;31.30;44.30
26254;DHT22;53339;51.378;0.094;2022-08-03T13:22:25;31.60;43.80
26254;DHT22;53339;51.378;0.094;2022-08-03T13:24:55;31.80;42.70
26254;DHT22;53339;51.378;0.094;2022-08-03T13:27:24;31.90;43.20
26254;DHT22;53339;51.378;0.094;2022-08-03T13:30:13;32.10;42.50
26254;DHT22;53339;51.378;0.094;2022-08-03T13:32:42;32.30;40.90
26254;DHT22;53339;51.378;0.094;2022-08-03T13:35:10;32.20;41.30
26254;DHT22;53339;51.378;0.094;2022-08-03T13:37:38;32.40;40.50
26254;DHT22;53339;51.378;0.094;2022-08-03T13:40:06;32.60;40.40
26254;DHT22;53339;51.378;0.094;2022-08-03T13:42:34;32.80;40.10
26254;DHT22;53339;51.378;0.094;2022-08-03T13:45:03;33.00;39.00
26254;DHT22;53339;51.378;0.094;2022-08-03T13:47:31;33.20;39.70
26254;DHT22;53339;51.378;0.094;2022-08-03T13:49:58;33.40;38.40
26254;DHT22;53339;51.378;0.094;2022-08-03T13:52:31;33.40;39.00
26254;DHT22;53339;51.378;0.094;2022-08-03T13:55:00;33.70;39.50
26254;DHT22;53339;51.378;0.094;2022-08-03T13:57:28;34.10;38.60
26254;DHT22;53339;51.378;0.094;2022-08-03T14:00:16;34.60;38.00
26254;DHT22;53339;51.378;0.094;2022-08-03T14:02:58;34.90;35.00
26254;DHT22;53339;51.378;0.094;2022-08-03T14:05:33;34.60;34.70
26254;DHT22;53339;51.378;0.094;2022-08-03T14:08:02;34.30;35.20
26254;DHT22;53339;51.378;0.094;2022-08-03T14:10:36;34.10;35.50
26254;DHT22;53339;51.378;0.094;2022-08-03T14:13:04;33.80;37.00
26254;DHT22;53339;51.378;0.094;2022-08-03T14:15:32;34.00;37.60
26254;DHT22;53339;51.378;0.094;2022-08-03T14:18:06;34.40;35.80
26254;DHT22;53339;51.378;0.094;2022-08-03T14:20:39;34.40;35.40
26254;DHT22;53339;51.378;0.094;2022-08-03T14:23:16;34.00;36.30
26254;DHT22;53339;51.378;0.094;2022-08-03T14:25:44;34.20;36.50
26254;DHT22;53339;51.378;0.094;2022-08-03T14:28:18;34.40;35.50
26254;DHT22;53339;51.378;0.094;2022-08-03T14:30:45;34.50;35.70
26254;DHT22;53339;51.378;0.094;2022-08-03T14:33:14;34.70;35.20
26254;DHT22;53339;51.378;0.094;2022-08-03T14:35:41;34.80;35.80
26254;DHT22;53339;51.378;0.094;2022-08-03T14:38:09;35.10;34.10
26254;DHT22;53339;51.378;0.094;2022-08-03T14:40:37;35.10;33.80
26254;DHT22;53339;51.378;0.094;2022-08-03T14:43:04;34.80;34.40
26254;DHT22;53339;51.378;0.094;2022-08-03T14:45:32;34.70;35.20
26254;DHT22;53339;51.378;0.094;2022-08-03T14:48:01;35.10;35.50
26254;DHT22;53339;51.378;0.094;2022-08-03T14:50:49;35.40;34.30
26254;DHT22;53339;51.378;0.094;2022-08-03T14:53:18;35.60;33.70
26254;DHT22;53339;51.378;0.094;2022-08-03T14:55:46;35.50;33.20
26254;DHT22;53339;51.378;0.094;2022-08-03T14:58:16;35.50;33.30
26254;DHT22;53339;51.378;0.094;2022-08-03T15:00:46;35.50;33.50
26254;DHT22;53339;51.378;0.094;2022-08-03T15:03:13;35.50;33.50
26254;DHT22;53339;51.378;0.094;2022-08-03T15:05:42;35.30;34.10
26254;DHT22;53339;51.378;0.094;2022-08-03T15:08:10;34.40;34.80
26254;DHT22;53339;51.378;0.094;2022-08-03T15:10:38;33.30;36.60
26254;DHT22;53339;51.378;0.094;2022-08-03T15:13:06;32.60;38.30
26254;DHT22;53339;51.378;0.094;2022-08-03T15:15:34;32.60;38.60
26254;DHT22;53339;51.378;0.094;2022-08-03T15:18:01;33.20;38.00
26254;DHT22;53339;51.378;0.094;2022-08-03T15:20:29;33.10;37.70
26254;DHT22;53339;51.378;0.094;2022-08-03T15:23:09;32.60;38.80
26254;DHT22;53339;51.378;0.094;2022-08-03T15:25:37;32.70;39.00
26254;DHT22;53339;51.378;0.094;2022-08-03T15:28:24;33.20;38.50
26254;DHT22;53339;51.378;0.094;2022-08-03T15:30:52;33.90;37.00
26254;DHT22;53339;51.378;0.094;2022-08-03T15:33:20;34.00;36.80
26254;DHT22;53339;51.378;0.094;2022-08-03T15:35:48;33.70;37.20
26254;DHT22;53339;51.378;0.094;2022-08-03T15:38:16;33.50;37.90
26254;DHT22;53339;51.378;0.094;2022-08-03T15:40:44;33.20;38.00
26254;DHT22;53339;51.378;0.094;2022-08-03T15:43:12;32.50;39.30
26254;DHT22;53339;51.378;0.094;2022-08-03T15:45:39;31.90;40.40
26254;DHT22;53339;51.378;0.094;2022-08-03T15:48:08;31.80;41.00
26254;DHT22;53339;51.378;0.094;2022-08-03T15:50:35;31.50;41.40
26254;DHT22;53339;51.378;0.094;2022-08-03T15:53:03;31.10;42.10
26254;DHT22;53339;51.378;0.094;2022-08-03T15:55:31;30.90;43.20
26254;DHT22;53339;51.378;0.094;2022-08-03T15:57:59;30.70;43.30
26254;DHT22;53339;51.378;0.094;2022-08-03T16:00:46;30.20;44.10
26254;DHT22;53339;51.378;0.094;2022-08-03T16:03:14;30.10;45.00
26254;DHT22;53339;51.378;0.094;2022-08-03T16:05:41;30.30;45.00
26254;DHT22;53339;51.378;0.094;2022-08-03T16:08:10;30.10;45.10
26254;DHT22;53339;51.378;0.094;2022-08-03T16:10:40;30.10;45.40
26254;DHT22;53339;51.378;0.094;2022-08-03T16:13:08;30.40;45.10
26254;DHT22;53339;51.378;0.094;2022-08-03T16:15:35;31.00;44.50
26254;DHT22;53339;51.378;0.094;2022-08-03T16:18:05;31.60;42.70
26254;DHT22;53339;51.378;0.094;2022-08-03T16:20:33;31.90;42.10
26254;DHT22;53339;51.378;0.094;2022-08-03T16:23:03;32.10;41.40
26254;DHT22;53339;51.378;0.094;2022-08-03T16:25:34;31.90;41.70
26254;DHT22;53339;51.378;0.094;2022-08-03T16:28:02;31.60;42.30
26254;DHT22;53339;51.378;0.094;2022-08-03T16:30:34;31.10;43.00
26254;DHT22;53339;51.378;0.094;2022-08-03T16:33:02;30.60;43.80